Terminal Aerodrome Forecast
Issued by NWS Chicago, IL

Home | Current Version | Previous Version | Text Only | Print | Product List | Glossary Off
Versions: 1 2 3 4 5 6 7 8 9 10 11 12 13 14 15 16 17 18 19 20 21 22 23 24 25 26 27 28 29 30 31

919
FTUS43 KLOT 281121
TAFRFD
TAF
KRFD 281121Z 2812/2912 04008KT P6SM SCT010 OVC025
      TEMPO 2812/2814 4SM BR OVC010
     FM282200 06009KT P6SM SCT030 BKN200
     FM290700 06007KT P6SM FEW007 OVC025=

USA.gov is the U.S. government's official web portal to all federal, state and local government web resources and services.